Time;durP1;ratioP1;P1;durP2;ratioP2;P2;SDS_P1;SDS_P2;PMS_P1;PMS_P2;Temp;Humidity;BMP_temperature;BMP_pressure;BME280_temperature;BME280_humidity;BME280_pressure;Samples;Min_cycle;Max_cycle;Signal;HPM_P1;HPM_P2
2023/04/07 00:00:17;;;;;;;30.73;14.75;;;;;;;8.00;100.00;101354.63;4989452;28;20073;-86
2023/04/07 00:02:43;;;;;;;26.85;14.25;;;;;;;7.97;100.00;101357.47;4989410;28;20046;-86
2023/04/07 00:05:08;;;;;;;29.98;14.30;;;;;;;7.95;100.00;101354.00;4991172;28;20069;-86
2023/04/07 00:07:34;;;;;;;27.90;13.30;;;;;;;7.89;100.00;101349.78;4973932;28;20034;-87
2023/04/07 00:09:59;;;;;;;36.88;13.90;;;;;;;7.96;100.00;101352.16;4976046;28;20046;-89
2023/04/07 00:12:24;;;;;;;28.15;12.95;;;;;;;7.91;100.00;101350.56;4991637;28;20438;-87
2023/04/07 00:14:50;;;;;;;23.95;12.90;;;;;;;7.87;100.00;101338.13;4992546;28;20038;-88
2023/04/07 00:17:15;;;;;;;25.80;13.30;;;;;;;7.89;100.00;101349.78;4976524;28;20030;-87
2023/04/07 00:19:40;;;;;;;23.10;12.32;;;;;;;7.92;100.00;101355.00;4990325;28;20098;-85
2023/04/07 00:22:06;;;;;;;27.67;13.25;;;;;;;7.89;100.00;101360.63;4993721;28;20139;-87
2023/04/07 00:24:32;;;;;;;25.00;11.43;;;;;;;7.88;100.00;101358.88;4974883;28;20354;-87
2023/04/07 00:26:57;;;;;;;18.63;11.32;;;;;;;7.76;100.00;101345.97;4996157;28;20069;-88
2023/04/07 00:29:22;;;;;;;17.83;11.68;;;;;;;7.69;100.00;101344.53;4994077;28;20041;-86
2023/04/07 00:31:48;;;;;;;22.48;11.88;;;;;;;7.68;100.00;101361.72;5006320;28;20026;-86
2023/04/07 00:34:13;;;;;;;20.27;11.60;;;;;;;7.67;100.00;101346.44;4991714;28;20113;-87
2023/04/07 00:36:39;;;;;;;22.67;12.10;;;;;;;7.72;100.00;101359.75;4991282;28;20022;-85
2023/04/07 00:39:04;;;;;;;22.38;12.75;;;;;;;7.62;100.00;101346.69;4991703;28;20042;-87
2023/04/07 00:41:29;;;;;;;19.70;11.25;;;;;;;7.69;100.00;101358.06;4991016;28;20084;-87
2023/04/07 00:43:55;;;;;;;22.15;12.68;;;;;;;7.68;100.00;101365.31;4974690;28;20058;-85
2023/04/07 00:46:22;;;;;;;21.55;12.20;;;;;;;7.72;100.00;101366.03;4974250;28;20407;-87
2023/04/07 00:48:47;;;;;;;22.52;12.43;;;;;;;7.67;100.00;101350.03;4998882;28;20019;-86
2023/04/07 00:51:13;;;;;;;23.63;12.55;;;;;;;7.68;100.00;101361.72;4975136;28;20049;-85
2023/04/07 00:53:39;;;;;;;20.95;12.65;;;;;;;7.73;100.00;101358.78;5004562;28;20060;-85
2023/04/07 00:56:05;;;;;;;22.70;13.55;;;;;;;7.69;100.00;101358.06;4992730;28;20129;-86
2023/04/07 00:58:30;;;;;;;23.90;12.65;;;;;;;7.69;100.00;101360.75;4993116;28;20033;-87
2023/04/07 01:01:05;;;;;;;24.48;13.23;;;;;;;7.69;100.00;101360.75;5006230;28;20083;-85
2023/04/07 01:03:37;;;;;;;21.75;12.15;;;;;;;7.65;100.00;101364.63;4992264;28;20426;-88
2023/04/07 01:06:06;;;;;;;21.52;11.65;;;;;;;7.56;100.00;101349.72;4998043;28;20042;-86
2023/04/07 01:08:41;;;;;;;26.52;11.25;;;;;;;7.56;100.00;101347.00;4978758;28;20407;-85
2023/04/07 01:11:19;;;;;;;24.35;11.90;;;;;;;7.60;100.00;101356.72;4986662;28;20030;-86
2023/04/07 01:13:48;;;;;;;15.57;9.85;;;;;;;7.57;100.00;101356.00;4970334;28;20039;-87
2023/04/07 01:16:30;;;;;;;;;;;;;;;7.62;100.00;101359.34;4955789;28;20553;-86
2023/04/07 01:19:03;;;;;;;14.35;8.63;;;;;;;7.56;100.00;101365.97;4980632;28;19918;-89
2023/04/07 01:21:33;;;;;;;20.35;8.70;;;;;;;7.52;100.00;101358.97;4986383;28;20179;-86
2023/04/07 01:24:23;;;;;;;20.45;10.02;;;;;;;7.59;100.00;101373.03;4974878;28;20022;-86
2023/04/07 01:26:50;;;;;;;17.25;10.73;;;;;;;7.57;100.00;101375.84;4972631;28;20512;-87
2023/04/07 01:29:35;;;;;;;18.08;11.00;;;;;;;7.57;100.00;101361.44;4987529;28;20030;-86
2023/04/07 01:32:03;;;;;;;19.80;10.55;;;;;;;7.56;100.00;101376.81;4988166;28;20041;-86
2023/04/07 01:34:30;;;;;;;24.00;10.60;;;;;;;7.51;100.00;101364.47;5004179;28;20437;-87
2023/04/07 01:36:57;;;;;;;20.50;11.93;;;;;;;7.48;100.00;101367.31;4987737;28;20034;-87
2023/04/07 01:39:26;;;;;;;22.38;9.90;;;;;;;7.48;100.00;101362.78;4976284;28;20052;-87
2023/04/07 01:41:52;;;;;;;15.52;8.48;;;;;;;7.45;100.00;101367.47;4991720;28;20042;-88
2023/04/07 01:44:18;;;;;;;17.75;7.68;;;;;;;7.47;100.00;101379.09;5004018;28;20481;-87
2023/04/07 01:46:44;;;;;;;14.73;6.78;;;;;;;7.43;100.00;101369.38;4994722;28;20042;-86
2023/04/07 01:49:12;;;;;;;8.82;6.28;;;;;;;7.41;100.00;101378.47;4999646;28;20362;-91
2023/04/07 01:51:39;;;;;;;11.63;6.05;;;;;;;7.39;100.00;101379.47;4989188;28;20034;-87
2023/04/07 01:54:04;;;;;;;14.48;6.40;;;;;;;7.33;100.00;101375.25;5010353;28;20054;-85
2023/04/07 01:56:29;;;;;;;13.05;6.75;;;;;;;7.34;100.00;101377.00;4995300;28;20038;-86
2023/04/07 01:58:57;;;;;;;16.58;7.00;;;;;;;7.37;100.00;101384.09;5011378;28;20608;-85
2023/04/07 02:01:23;;;;;;;15.02;7.45;;;;;;;7.35;100.00;101386.88;4994725;28;20055;-85
2023/04/07 02:04:01;;;;;;;16.02;7.38;;;;;;;7.33;100.00;101394.22;4994805;28;20124;-86
2023/04/07 02:06:30;;;;;;;12.20;5.85;;;;;;;7.27;100.00;101383.66;4991656;28;20061;-86
2023/04/07 02:09:01;;;;;;;14.60;6.00;;;;;;;7.30;100.00;101398.88;4991680;28;20045;-86
2023/04/07 02:11:28;;;;;;;15.05;6.35;;;;;;;7.33;100.00;101396.03;4975691;28;20046;-86
2023/04/07 02:14:01;;;;;;;11.00;5.73;;;;;;;7.34;100.00;101403.19;4982167;28;20534;-85
2023/04/07 02:16:30;;;;;;;14.82;6.53;;;;;;;7.32;100.00;101395.16;4996261;28;20753;-86
2023/04/07 02:18:56;;;;;;;18.38;7.20;;;;;;;7.32;100.00;101397.88;4991227;28;20033;-86
2023/04/07 02:21:22;;;;;;;13.00;6.68;;;;;;;7.34;100.00;101403.19;4975105;28;20512;-85
2023/04/07 02:23:48;;;;;;;12.55;6.45;;;;;;;7.30;100.00;101390.78;4993040;28;20530;-86
2023/04/07 02:26:13;;;;;;;11.30;6.78;;;;;;;7.33;100.00;101398.75;4975192;28;20120;-86
2023/04/07 02:28:39;;;;;;;14.90;6.82;;;;;;;7.33;100.00;101398.75;4990679;28;20061;-85
2023/04/07 02:31:04;;;;;;;14.77;7.72;;;;;;;7.33;100.00;101396.91;4990568;28;20064;-86
2023/04/07 02:33:31;;;;;;;16.63;7.60;;;;;;;7.29;100.00;101389.91;4990983;28;20033;-86
2023/04/07 02:35:56;;;;;;;13.25;7.03;;;;;;;7.29;100.00;101389.91;4975103;28;20042;-85
2023/04/07 02:38:21;;;;;;;15.18;7.07;;;;;;;7.26;100.00;101387.31;4975024;28;20038;-86
2023/04/07 02:40:47;;;;;;;18.20;7.70;;;;;;;7.26;100.00;101389.16;4991138;28;20049;-86
2023/04/07 02:43:13;;;;;;;20.80;8.57;;;;;;;7.26;100.00;101387.31;4991243;28;20128;-85
2023/04/07 02:45:38;;;;;;;14.32;7.88;;;;;;;7.24;100.00;101386.53;4973442;28;20534;-85
2023/04/07 02:48:04;;;;;;;14.00;7.68;;;;;;;7.29;100.00;101395.31;4989386;28;20038;-86
2023/04/07 02:50:29;;;;;;;12.70;7.03;;;;;;;7.28;100.00;101392.69;4974413;28;20104;-86
2023/04/07 02:52:55;;;;;;;11.50;6.18;;;;;;;7.28;100.00;101392.69;4999956;28;20037;-85
2023/04/07 02:55:20;;;;;;;14.45;6.60;;;;;;;7.28;100.00;101390.84;5010170;28;20069;-85
2023/04/07 02:57:46;;;;;;;11.77;6.47;;;;;;;7.29;100.00;101398.00;5010076;28;20120;-87
2023/04/07 03:00:24;;;;;;;12.30;6.00;;;;;;;7.30;100.00;101393.47;4994955;28;20045;-85
2023/04/07 03:03:00;;;;;;;12.65;5.90;;;;;;;7.24;100.00;101391.09;4992612;28;20040;-85
2023/04/07 03:05:28;;;;;;;16.73;5.63;;;;;;;7.25;100.00;101377.47;4979025;28;20030;-85
2023/04/07 03:07:54;;;;;;;13.30;4.75;;;;;;;7.26;100.00;101383.75;4984657;28;20041;-86
2023/04/07 03:10:19;;;;;;;8.75;4.93;;;;;;;7.29;100.00;101394.44;4973865;28;20030;-86
2023/04/07 03:12:45;;;;;;;9.60;4.90;;;;;;;7.27;100.00;101388.19;4974116;28;20451;-85
2023/04/07 03:15:10;;;;;;;12.57;4.93;;;;;;;7.24;100.00;101394.66;4990627;28;20053;-84
2023/04/07 03:17:37;;;;;;;12.63;5.18;;;;;;;7.25;100.00;101395.53;4986769;28;20490;-85
2023/04/07 03:20:04;;;;;;;12.80;5.13;;;;;;;7.21;100.00;101388.53;4987123;28;20034;-85
2023/04/07 03:22:31;;;;;;;7.15;4.57;;;;;;;7.23;100.00;101392.91;4979542;28;20021;-84
2023/04/07 03:24:57;;;;;;;10.05;4.60;;;;;;;7.26;100.00;101395.44;4993907;28;20044;-85
2023/04/07 03:27:24;;;;;;;9.00;4.82;;;;;;;7.22;100.00;101391.13;5010194;28;20442;-84
2023/04/07 03:29:50;;;;;;;12.10;5.35;;;;;;;7.24;100.00;101394.66;4983967;28;20085;-84
2023/04/07 03:32:16;;;;;;;13.70;5.32;;;;;;;7.19;100.00;101385.03;4974179;28;20030;-84
2023/04/07 03:34:41;;;;;;;11.23;5.93;;;;;;;7.22;100.00;101396.56;4989827;28;20481;-84
2023/04/07 03:37:07;;;;;;;13.70;6.40;;;;;;;7.22;100.00;101392.97;4989679;28;20080;-85
2023/04/07 03:39:36;;;;;;;20.25;8.27;;;;;;;7.15;100.00;101385.16;4990503;28;20420;-85
2023/04/07 03:42:08;;;;;;;19.40;8.45;;;;;;;7.22;100.00;101403.78;4974737;28;20057;-84
2023/04/07 03:44:34;;;;;;;20.58;8.40;;;;;;;7.19;100.00;101394.03;4973927;28;20494;-85
2023/04/07 03:47:00;;;;;;;16.58;8.55;;;;;;;7.16;100.00;101386.91;4989948;28;20042;-84
2023/04/07 03:49:26;;;;;;;17.73;9.00;;;;;;;7.21;100.00;101400.22;4974037;28;20741;-84
2023/04/07 03:51:52;;;;;;;20.15;9.18;;;;;;;7.22;100.00;101395.69;4989307;28;20153;-85
2023/04/07 03:54:18;;;;;;;19.45;10.50;;;;;;;7.21;100.00;101402.91;4992812;28;20066;-85
2023/04/07 03:56:44;;;;;;;22.15;9.55;;;;;;;7.20;100.00;101393.06;4993588;28;20038;-84
2023/04/07 03:59:11;;;;;;;17.60;9.07;;;;;;;7.23;100.00;101410.94;4990806;28;20038;-84
2023/04/07 04:01:46;;;;;;;22.27;9.23;;;;;;;7.22;100.00;101407.38;4993915;28;20025;-85
2023/04/07 04:04:14;;;;;;;17.13;8.30;;;;;;;7.22;100.00;101412.78;4998020;28;20290;-84
2023/04/07 04:06:39;;;;;;;18.40;9.63;;;;;;;7.21;100.00;101402.91;4989788;28;20125;-85
2023/04/07 04:09:25;;;;;;;20.80;9.18;;;;;;;7.18;100.00;101402.19;4966288;28;20034;-85
2023/04/07 04:11:51;;;;;;;20.13;9.32;;;;;;;7.22;100.00;101412.78;5009230;28;20055;-85
2023/04/07 04:14:17;;;;;;;20.08;9.68;;;;;;;7.17;100.00;101406.72;5008318;28;20037;-85
2023/04/07 04:16:49;;;;;;;20.30;8.98;;;;;;;7.13;100.00;101395.22;4999815;28;20034;-85
2023/04/07 04:19:25;;;;;;;18.70;9.00;;;;;;;7.13;100.00;101395.22;4973963;28;20042;-85
2023/04/07 04:21:54;;;;;;;23.13;8.80;;;;;;;7.10;100.00;101394.47;5002952;28;20034;-85
2023/04/07 04:24:20;;;;;;;20.85;7.85;;;;;;;7.10;100.00;101400.75;4986143;28;20027;-85
2023/04/07 04:26:46;;;;;;;17.77;8.70;;;;;;;7.08;100.00;101408.06;4970042;28;20039;-84
2023/04/07 04:29:14;;;;;;;20.88;9.18;;;;;;;7.08;100.00;101407.19;4976909;28;20161;-85
2023/04/07 04:31:41;;;;;;;17.60;8.93;;;;;;;7.07;100.00;101410.84;4969427;28;20400;-84
2023/04/07 04:34:07;;;;;;;15.10;7.65;;;;;;;7.07;100.00;101413.56;4969121;28;20058;-85
2023/04/07 04:36:33;;;;;;;20.05;9.05;;;;;;;7.05;100.00;101404.66;4979759;28;20096;-84
2023/04/07 04:39:02;;;;;;;20.08;7.97;;;;;;;7.04;100.00;101413.69;4990116;28;20483;-85
2023/04/07 04:41:28;;;;;;;21.13;8.57;;;;;;;6.97;100.00;101407.72;4973426;28;20042;-85
2023/04/07 04:43:55;;;;;;;14.85;7.68;;;;;;;6.91;100.00;101416.13;4973325;28;20065;-85
2023/04/07 04:46:23;;;;;;;19.23;7.55;;;;;;;6.89;100.00;101415.31;5003745;28;20120;-85
2023/04/07 04:48:50;;;;;;;18.05;7.80;;;;;;;6.86;100.00;101427.16;5007732;28;20580;-85
2023/04/07 04:51:17;;;;;;;18.63;7.75;;;;;;;6.79;100.00;101420.28;5007570;28;20100;-85
2023/04/07 04:53:47;;;;;;;19.75;8.18;;;;;;;6.76;100.00;101423.16;4976858;28;20520;-85
2023/04/07 04:56:12;;;;;;;26.65;8.35;;;;;;;6.71;100.00;101427.88;4979718;28;20124;-85
2023/04/07 04:58:44;;;;;;;12.68;6.70;;;;;;;6.73;100.00;101438.63;4969585;28;20026;-84
2023/04/07 05:01:12;;;;;;;22.65;8.02;;;;;;;6.72;100.00;101436.91;4957569;28;20066;-84
2023/04/07 05:03:42;;;;;;;18.63;8.23;;;;;;;6.71;100.00;101437.81;4984475;28;20034;-85
2023/04/07 05:06:16;;;;;;;21.90;8.02;;;;;;;6.72;100.00;101439.59;4998981;28;20484;-85
2023/04/07 05:08:43;;;;;;;26.50;8.15;;;;;;;6.75;100.00;101445.72;4977182;28;20176;-84
2023/04/07 05:11:11;;;;;;;23.05;8.80;;;;;;;6.77;100.00;101445.66;4987947;28;20127;-84
2023/04/07 05:13:37;;;;;;;22.80;7.53;;;;;;;6.78;100.00;101448.28;4972807;28;20018;-85
2023/04/07 05:16:03;;;;;;;21.00;8.50;;;;;;;6.79;100.00;101439.22;4987363;28;20385;-84
2023/04/07 05:18:29;;;;;;;26.70;7.50;;;;;;;6.84;100.00;101452.53;4987931;28;20026;-85
2023/04/07 05:20:56;;;;;;;22.35;9.40;;;;;;;6.85;100.00;101448.84;4972526;28;20263;-85
2023/04/07 05:23:24;;;;;;;23.63;8.80;;;;;;;6.85;100.00;101455.16;4984123;28;20423;-85
2023/04/07 05:25:50;;;;;;;19.77;9.77;;;;;;;6.87;100.00;101452.38;4992081;28;20451;-85
2023/04/07 05:28:17;;;;;;;21.88;7.97;;;;;;;6.88;100.00;101454.13;5008398;28;20053;-85
2023/04/07 05:30:42;;;;;;;20.55;8.02;;;;;;;6.90;100.00;101458.53;5006987;28;20482;-85
2023/04/07 05:33:08;;;;;;;21.60;9.00;;;;;;;6.94;100.00;101461.06;4994490;28;20035;-85
2023/04/07 05:35:45;;;;;;;25.67;8.93;;;;;;;6.94;100.00;101455.66;4972904;28;20026;-85
2023/04/07 05:38:11;;;;;;;24.20;9.07;;;;;;;6.97;100.00;101469.06;5011645;28;20059;-85
2023/04/07 05:40:39;;;;;;;21.13;8.25;;;;;;;6.98;100.00;101462.69;4971833;28;20177;-85
2023/04/07 05:43:07;;;;;;;18.77;8.10;;;;;;;6.97;100.00;101463.63;4988445;28;20442;-85
2023/04/07 05:45:32;;;;;;;31.95;10.30;;;;;;;7.00;100.00;101461.69;4987140;28;20062;-85
2023/04/07 05:47:58;;;;;;;23.58;8.20;;;;;;;7.00;100.00;101461.69;5006585;28;20033;-84
2023/04/07 05:50:30;;;;;;;23.00;9.25;;;;;;;7.04;100.00;101462.38;4973914;28;20395;-85
2023/04/07 05:52:59;;;;;;;26.10;9.48;;;;;;;7.04;100.00;101460.59;4969390;28;20503;-85
2023/04/07 05:55:26;;;;;;;28.27;10.07;;;;;;;7.09;100.00;101471.19;4982259;28;20096;-85
2023/04/07 05:57:51;;;;;;;21.98;9.45;;;;;;;7.07;100.00;101467.66;4998587;28;20124;-85
2023/04/07 06:00:20;;;;;;;27.10;9.50;;;;;;;7.12;100.00;101460.19;4978976;28;20037;-86
2023/04/07 06:02:55;;;;;;;22.95;9.45;;;;;;;7.14;100.00;101470.00;4971522;28;20439;-85
2023/04/07 06:05:21;;;;;;;22.50;9.43;;;;;;;7.20;100.00;101467.94;4972297;28;20088;-85
2023/04/07 06:07:50;;;;;;;22.48;9.52;;;;;;;7.22;100.00;101474.16;4988671;28;20554;-85
2023/04/07 06:10:16;;;;;;;25.30;9.93;;;;;;;7.24;100.00;101483.97;4971092;28;20245;-85
2023/04/07 06:12:41;;;;;;;23.30;11.02;;;;;;;7.23;100.00;101471.41;4971711;28;20077;-85
2023/04/07 06:15:07;;;;;;;27.88;10.73;;;;;;;7.29;100.00;101483.75;4987123;28;20056;-84
2023/04/07 06:17:32;;;;;;;24.80;11.20;;;;;;;7.31;100.00;101481.81;4987970;28;20033;-84
2023/04/07 06:19:58;;;;;;;23.70;9.95;;;;;;;7.31;100.00;101480.00;4988346;28;20045;-84
2023/04/07 06:22:23;;;;;;;34.22;11.75;;;;;;;7.35;100.00;101484.31;4993572;28;20036;-85
2023/04/07 06:24:48;;;;;;;28.40;11.07;;;;;;;7.33;100.00;101478.13;5010968;28;20041;-85
2023/04/07 06:27:16;;;;;;;25.73;11.90;;;;;;;7.39;100.00;101487.75;4994269;28;20033;-85
2023/04/07 06:29:41;;;;;;;24.85;10.13;;;;;;;7.43;100.00;101494.78;4994014;28;20037;-84
2023/04/07 06:32:07;;;;;;;24.48;10.43;;;;;;;7.40;100.00;101486.78;4991137;28;20038;-85
2023/04/07 06:34:35;;;;;;;26.50;10.85;;;;;;;7.45;100.00;101492.84;4991409;28;20410;-85
2023/04/07 06:37:00;;;;;;;30.50;12.18;;;;;;;7.52;100.00;101507.88;4989657;28;20045;-85
2023/04/07 06:39:26;;;;;;;34.15;11.65;;;;;;;7.55;100.00;101495.97;4975021;28;20038;-85
2023/04/07 06:41:51;;;;;;;23.25;10.48;;;;;;;7.60;100.00;101496.63;4991740;28;20048;-84
2023/04/07 06:44:17;;;;;;;31.75;12.57;;;;;;;7.63;100.00;101502.78;4989945;28;20557;-85
2023/04/07 06:46:43;;;;;;;25.17;11.45;;;;;;;7.64;100.00;101500.94;4982476;28;20038;-85
2023/04/07 06:49:08;;;;;;;29.05;12.20;;;;;;;7.67;100.00;101504.38;5000768;28;20034;-85
2023/04/07 06:51:34;;;;;;;27.83;9.70;;;;;;;7.69;100.00;101504.31;4999021;28;20154;-85
2023/04/07 06:53:59;;;;;;;25.95;11.18;;;;;;;7.76;100.00;101510.31;4990673;28;20106;-85
2023/04/07 06:56:25;;;;;;;28.92;11.57;;;;;;;7.84;100.00;101510.81;5007465;28;20042;-85
2023/04/07 06:58:50;;;;;;;23.20;10.55;;;;;;;7.95;100.00;101515.66;4991202;28;20104;-84
2023/04/07 07:01:16;;;;;;;25.30;10.93;;;;;;;8.04;100.00;101524.22;5009366;28;20507;-85
2023/04/07 07:03:41;;;;;;;24.30;10.77;;;;;;;8.12;100.00;101519.28;5005535;28;20065;-85
2023/04/07 07:06:07;;;;;;;22.10;10.70;;;;;;;8.26;100.00;101533.97;4999334;28;20034;-85
2023/04/07 07:08:32;;;;;;;24.27;11.05;;;;;;;8.33;100.00;101528.13;4978326;28;20031;-85
2023/04/07 07:10:58;;;;;;;20.30;9.57;;;;;;;8.37;100.00;101518.03;4971262;28;20041;-85
2023/04/07 07:13:25;;;;;;;23.35;11.02;;;;;;;8.54;100.00;101528.88;4970948;28;20061;-85
2023/04/07 07:15:51;;;;;;;16.00;8.82;;;;;;;8.69;100.00;101533.47;4972659;28;20039;-85
2023/04/07 07:18:18;;;;;;;22.80;9.93;;;;;;;8.78;100.00;101523.97;4983932;28;20129;-85
2023/04/07 07:20:43;;;;;;;22.40;8.18;;;;;;;8.81;100.00;101525.63;4991370;28;20050;-85
2023/04/07 07:23:09;;;;;;;16.02;7.93;;;;;;;8.81;100.00;101533.75;5000281;28;20113;-85
2023/04/07 07:25:34;;;;;;;15.30;7.07;;;;;;;8.81;100.00;101531.03;5010327;28;20045;-85
2023/04/07 07:28:00;;;;;;;17.10;6.93;;;;;;;8.79;100.00;101533.84;5010513;28;20374;-85
2023/04/07 07:30:25;;;;;;;14.93;6.47;;;;;;;8.80;100.00;101534.72;4992768;28;20030;-84
2023/04/07 07:32:52;;;;;;;16.20;6.72;;;;;;;8.81;100.00;101542.81;5008466;28;20061;-84
2023/04/07 07:35:19;;;;;;;16.52;6.35;;;;;;;8.78;100.00;101540.25;4991115;28;20124;-84
2023/04/07 07:37:45;;;;;;;9.75;6.22;;;;;;;8.77;100.00;101538.50;4974071;28;20411;-85
2023/04/07 07:40:10;;;;;;;12.55;6.32;;;;;;;8.73;100.00;101546.88;4974219;28;20481;-86
2023/04/07 07:42:37;;;;;;;12.77;6.00;;;;;;;8.75;100.00;101553.09;4990567;28;20035;-85
2023/04/07 07:45:02;;;;;;;12.63;6.47;;;;;;;8.78;100.00;101551.09;4976720;28;20105;-85
2023/04/07 07:47:28;;;;;;;12.38;5.65;;;;;;;8.84;100.00;101555.31;4992910;28;20200;-85
2023/04/07 07:49:53;;;;;;;12.25;6.03;;;;;;;8.82;100.00;101560.81;4978760;28;20486;-85
2023/04/07 07:52:19;;;;;;;13.68;4.95;;;;;;;8.79;98.66;101563.69;4972761;28;20490;-85
2023/04/07 07:54:45;;;;;;;10.32;5.45;;;;;;;8.74;98.79;101559.47;4991127;28;20050;-86
2023/04/07 07:57:11;;;;;;;9.15;4.88;;;;;;;8.72;97.66;101556.84;4990158;28;20510;-85
2023/04/07 07:59:37;;;;;;;10.55;6.15;;;;;;;8.89;99.67;101564.06;4988636;28;20081;-85
2023/04/07 08:02:02;;;;;;;8.15;3.97;;;;;;;8.99;98.15;101568.03;4990028;28;20478;-85
2023/04/07 08:04:28;;;;;;;8.05;3.58;;;;;;;9.08;97.71;101558.53;4989451;28;20053;-85
2023/04/07 08:06:53;;;;;;;7.75;4.00;;;;;;;9.07;93.48;101559.50;4989584;28;20329;-85
2023/04/07 08:09:19;;;;;;;8.27;3.30;;;;;;;9.12;95.15;101571.84;4989080;28;20153;-86
2023/04/07 08:11:47;;;;;;;7.32;3.78;;;;;;;9.23;96.10;101575.78;5006676;28;20486;-85
2023/04/07 08:14:13;;;;;;;8.50;3.80;;;;;;;9.26;96.42;101576.50;4995105;28;20048;-85
2023/04/07 08:16:38;;;;;;;7.65;3.58;;;;;;;9.33;94.70;101577.94;4996740;28;20039;-85
2023/04/07 08:19:03;;;;;;;12.50;3.80;;;;;;;9.26;94.57;101576.50;4990318;28;20019;-85
2023/04/07 08:21:30;;;;;;;10.13;3.40;;;;;;;9.24;94.03;101578.44;5000119;28;20030;-85
2023/04/07 08:23:56;;;;;;;11.00;3.65;;;;;;;9.22;95.05;101574.06;4976270;28;20816;-85
2023/04/07 08:26:22;;;;;;;8.38;4.93;;;;;;;9.27;95.89;101582.81;4970161;28;20053;-85
2023/04/07 08:28:51;;;;;;;10.55;4.78;;;;;;;9.24;93.89;101588.44;4969438;28;20510;-87
2023/04/07 08:31:17;;;;;;;11.73;4.60;;;;;;;9.16;94.04;101602.41;4953491;28;20046;-85
2023/04/07 08:33:42;;;;;;;7.32;4.60;;;;;;;9.13;95.63;101597.16;4988924;28;20014;-84
2023/04/07 08:36:08;;;;;;;13.93;4.47;;;;;;;9.15;95.49;101606.09;4989132;28;20521;-85
2023/04/07 08:38:33;;;;;;;11.20;4.40;;;;;;;9.07;95.48;101592.06;4991130;28;20031;-85
2023/04/07 08:41:06;;;;;;;6.60;4.20;;;;;;;9.10;95.52;101600.91;4989086;28;20042;-85
2023/04/07 08:43:35;;;;;;;7.82;4.03;;;;;;;9.09;96.52;101601.88;4973050;28;20122;-85
2023/04/07 08:46:01;;;;;;;4.97;3.17;;;;;;;9.05;92.35;101599.41;4987395;28;20498;-85
2023/04/07 08:48:32;;;;;;;6.50;3.90;;;;;;;9.15;95.20;101611.53;4991921;28;20275;-85
2023/04/07 08:51:09;;;;;;;6.68;3.63;;;;;;;9.23;94.62;101608.38;5007463;28;20085;-85
2023/04/07 08:53:42;;;;;;;7.88;3.75;;;;;;;9.37;93.53;101612.13;5001679;28;20100;-84
2023/04/07 08:56:08;;;;;;;6.47;3.40;;;;;;;9.45;94.72;101606.25;5008767;28;20503;-84
2023/04/07 08:58:35;;;;;;;9.57;3.78;;;;;;;9.65;95.00;101614.19;5008600;28;20037;-84
2023/04/07 09:01:07;;;;;;;6.30;3.25;;;;;;;9.76;93.49;101608.13;4989663;28;20038;-85
2023/04/07 09:03:33;;;;;;;;;;;;;;;9.87;94.38;101623.81;5007973;28;20358;-85
2023/04/07 09:06:02;;;;;;;7.47;3.20;;;;;;;9.89;91.64;101622.78;4984387;28;19976;-84
2023/04/07 09:08:27;;;;;;;5.60;3.03;;;;;;;9.98;91.54;101613.22;4989592;28;20100;-84
2023/04/07 09:10:53;;;;;;;8.32;3.00;;;;;;;9.91;88.53;101612.66;4988461;28;20065;-85
2023/04/07 09:13:19;;;;;;;10.48;3.50;;;;;;;9.85;88.73;101623.91;4985546;28;20042;-85
2023/04/07 09:15:45;;;;;;;6.55;3.05;;;;;;;9.75;88.54;101628.13;4952007;28;20047;-85
2023/04/07 09:18:10;;;;;;;6.15;3.10;;;;;;;9.71;90.85;101626.53;4972589;28;20072;-86
2023/04/07 09:20:58;;;;;;;5.93;3.42;;;;;;;9.76;90.70;101637.13;4988969;28;20034;-84
2023/04/07 09:23:49;;;;;;;9.52;3.30;;;;;;;9.76;91.48;101634.41;4999967;28;20044;-85
2023/04/07 09:26:26;;;;;;;6.22;2.97;;;;;;;9.71;90.71;101635.56;5005977;28;20061;-85
2023/04/07 09:28:54;;;;;;;7.40;2.88;;;;;;;9.64;89.91;101633.25;5008211;28;20200;-86
2023/04/07 09:31:21;;;;;;;6.97;3.00;;;;;;;9.64;89.10;101642.28;5007146;28;20117;-85
2023/04/07 09:33:50;;;;;;;6.57;3.00;;;;;;;9.63;90.60;101640.53;4996504;28;20037;-85
2023/04/07 09:36:16;;;;;;;8.00;3.10;;;;;;;9.64;89.97;101630.53;4998437;28;20405;-85
2023/04/07 09:38:43;;;;;;;6.85;2.42;;;;;;;9.70;89.24;101638.38;4985166;28;20034;-84
2023/04/07 09:41:16;;;;;;;5.22;2.42;;;;;;;9.73;90.57;101631.88;5008017;28;20034;-84
2023/04/07 09:43:45;;;;;;;7.28;2.75;;;;;;;9.81;89.33;101633.19;4987887;28;20046;-85
2023/04/07 09:46:16;;;;;;;7.75;2.92;;;;;;;9.90;90.05;101629.06;4967747;28;20479;-85
2023/04/07 09:48:43;;;;;;;8.95;2.85;;;;;;;9.97;89.23;101639.50;4983405;28;20030;-86
2023/04/07 09:51:11;;;;;;;6.38;2.60;;;;;;;10.04;88.31;101634.59;4989274;28;20034;-85
2023/04/07 09:53:48;;;;;;;13.50;2.92;;;;;;;9.94;89.05;101617.94;4988191;28;20474;-85
2023/04/07 09:56:16;;;;;;;8.82;3.25;;;;;;;9.92;87.68;101628.00;5002565;28;20048;-85
2023/04/07 09:58:44;;;;;;;13.00;3.03;;;;;;;9.75;87.02;101644.41;5011409;28;20041;-85
2023/04/07 10:01:11;;;;;;;12.00;4.40;;;;;;;9.54;88.39;101641.03;4994047;28;20033;-87
2023/04/07 10:03:39;;;;;;;7.43;2.97;;;;;;;9.41;89.00;101643.53;5009718;28;20117;-86
2023/04/07 10:06:05;;;;;;;9.15;2.90;;;;;;;9.35;90.25;101646.59;5005725;28;20429;-86
2023/04/07 10:08:33;;;;;;;15.98;3.42;;;;;;;9.22;89.75;101639.22;4976066;28;20394;-85
2023/04/07 10:11:03;;;;;;;8.57;3.10;;;;;;;9.18;89.56;101643.91;4975377;28;20034;-86
2023/04/07 10:13:33;;;;;;;16.00;3.85;;;;;;;9.21;89.56;101660.06;4992967;28;20165;-85
2023/04/07 10:16:03;;;;;;;11.73;3.20;;;;;;;9.24;91.23;101659.91;5008338;28;20041;-85
2023/04/07 10:18:33;;;;;;;13.93;3.40;;;;;;;9.24;90.17;101659.03;5007532;28;20042;-85
2023/04/07 10:21:03;;;;;;;11.23;2.95;;;;;;;9.31;90.13;101661.31;5004494;28;20041;-85
2023/04/07 10:23:50;;;;;;;7.00;2.40;;;;;;;9.38;89.90;101662.75;4974599;28;20030;-86
2023/04/07 10:26:18;;;;;;;8.30;2.65;;;;;;;9.41;90.33;101670.69;4990640;28;20081;-85
2023/04/07 10:28:47;;;;;;;8.18;2.70;;;;;;;9.41;91.14;101659.84;4974330;28;20501;-84
2023/04/07 10:31:13;;;;;;;12.60;3.00;;;;;;;9.54;89.66;101668.19;4991118;28;20176;-84
2023/04/07 10:33:51;;;;;;;7.75;2.92;;;;;;;9.62;89.94;101676.81;4975233;28;20457;-84
2023/04/07 10:36:19;;;;;;;6.10;2.50;;;;;;;9.74;88.82;101671.66;4992368;28;20030;-84
2023/04/07 10:39:09;;;;;;;4.65;2.58;;;;;;;9.85;89.51;101671.94;4987519;28;20111;-86
2023/04/07 10:41:37;;;;;;;11.25;2.80;;;;;;;9.99;90.85;101677.47;5009560;28;20042;-84
2023/04/07 10:44:03;;;;;;;9.43;3.17;;;;;;;10.09;88.52;101680.56;5009821;28;20096;-85
2023/04/07 10:46:44;;;;;;;11.63;3.55;;;;;;;10.10;88.47;101679.59;4993511;28;20042;-85
2023/04/07 10:49:12;;;;;;;9.73;3.10;;;;;;;10.08;88.50;101673.38;4991709;28;20042;-86
2023/04/07 10:51:37;;;;;;;7.50;2.40;;;;;;;10.15;88.89;101677.47;4974051;28;20042;-84
2023/04/07 10:54:15;;;;;;;13.55;3.35;;;;;;;10.22;87.96;101679.75;4974526;28;20509;-85
2023/04/07 10:57:02;;;;;;;7.90;2.40;;;;;;;10.22;87.43;101684.31;5008653;28;20037;-85
2023/04/07 10:59:29;;;;;;;7.88;2.90;;;;;;;10.19;87.62;101677.22;5010409;28;20486;-84
2023/04/07 11:02:29;;;;;;;11.20;2.83;;;;;;;10.29;86.79;101687.59;5009313;28;20033;-86
2023/04/07 11:04:55;;;;;;;11.13;3.28;;;;;;;10.20;85.57;101683.53;4995600;28;20062;-86
2023/04/07 11:07:49;;;;;;;7.57;3.28;;;;;;;10.15;85.77;101681.06;5001871;28;20453;-84
2023/04/07 11:10:15;;;;;;;13.77;3.55;;;;;;;10.12;84.45;101692.13;4990372;28;20041;-85
2023/04/07 11:12:42;;;;;;;4.25;2.33;;;;;;;10.13;85.79;101685.72;4989732;28;20500;-85
2023/04/07 11:15:21;;;;;;;5.50;2.45;;;;;;;10.11;85.31;101686.75;4989505;28;20092;-84
2023/04/07 11:18:05;;;;;;;8.60;3.72;;;;;;;10.19;85.44;101690.81;4973346;28;20552;-85
2023/04/07 11:20:41;;;;;;;6.47;2.60;;;;;;;10.22;84.03;101685.19;4989956;28;20045;-85
2023/04/07 11:23:07;;;;;;;8.05;2.88;;;;;;;10.33;83.37;101692.75;4989666;28;20403;-84